»·PEaware :: N733WB L88-KSBP

N733WB :: L88-KSBP

FLIGHT INFORMATION

Flight Status: Arrived
Operator: Privately registered:
United States
More flights under this callsign
Pilot: Jeremy K. (15416)
Aircraft: CESSNA 172 SKYHAWK
(C172)
More flights by this aircraft type
Origin: L88 New Cuyama
United States
Destination: KSBP San Luis Co Regl
United States
More flights between these airports :: More routes between these airports
Route:
File this flight plan on PilotEdge
Remarks: CAT 02
Altitude:
(Current/Filed)
65,000ft
Speed:
(Current/Filed)
120kts
Departed: 20-May-17 01:53 PM
Arrived: 20-May-17 02:52 PM
Distance/Time
Traveled:
50nm/0:59
Distance/Time
To Go:
Arrived

Flight Plot

Page will automatically refresh every two minutes.


Map Options




Map Legend


Flown Route
Filed Route
Departure Airport
Arrival Airport
Navaid (VOR, NDB)
Fix

Horizontal Profiles

Position Reports

Time Latitude Longitude Heading Altitude Ground
Speed
20-May-17 13:47 34.943568 -119.690580 294 2207ft 0kts
20-May-17 13:48 34.943568 -119.690580 294 2207ft 0kts
20-May-17 13:49 34.943295 -119.690836 201 2207ft 8kts
20-May-17 13:50 34.942900 -119.691050 201 2207ft 5kts
20-May-17 13:51 34.941483 -119.689378 116 2207ft 19kts
20-May-17 13:52 34.939855 -119.685398 117 2207ft 24kts
20-May-17 13:53 34.937893 -119.680720 113 2207ft 22kts
20-May-17 13:54 34.937816 -119.680407 296 2207ft 0kts
20-May-17 13:55 34.942075 -119.690694 296 2278ft 92kts
20-May-17 13:56 34.948756 -119.704394 297 2732ft 90kts
20-May-17 13:57 34.956591 -119.720904 295 3159ft 95kts
20-May-17 13:58 34.966267 -119.742907 293 3692ft 101kts
20-May-17 13:59 34.972661 -119.758378 292 4048ft 104kts
20-May-17 14:00 34.980817 -119.779289 290 4510ft 104kts
20-May-17 14:01 34.984646 -119.789522 289 4735ft 103kts
20-May-17 14:02 34.989808 -119.803793 288 5050ft 102kts
20-May-17 14:03 34.993161 -119.813374 287 5261ft 101kts
20-May-17 14:04 34.996778 -119.824022 287 5498ft 100kts
20-May-17 14:05 35.001273 -119.837730 285 5805ft 98kts
20-May-17 14:06 35.005773 -119.852503 284 6141ft 99kts
20-May-17 14:07 35.010028 -119.867456 282 6476ft 99kts
20-May-17 14:08 35.014042 -119.882589 281 6812ft 98kts
20-May-17 14:09 35.017789 -119.897833 279 7151ft 97kts
20-May-17 14:10 35.021239 -119.913057 278 7491ft 96kts
20-May-17 14:11 35.024402 -119.928280 276 7833ft 94kts
20-May-17 14:12 35.027234 -119.943281 275 8175ft 92kts
20-May-17 14:13 35.029756 -119.958156 273 8520ft 90kts
20-May-17 14:14 35.031716 -119.972717 272 8375ft 123kts
20-May-17 14:15 35.033584 -119.989809 272 8164ft 136kts
20-May-17 14:16 35.035498 -120.010286 271 7850ft 144kts
20-May-17 14:17 35.037110 -120.030335 270 7525ft 146kts
20-May-17 14:18 35.044993 -120.049563 302 7162ft 152kts
20-May-17 14:19 35.055792 -120.070016 295 6724ft 154kts
20-May-17 14:20 35.065601 -120.093090 292 6234ft 155kts
20-May-17 14:21 35.072257 -120.110811 289 6316ft 130kts
20-May-17 14:22 35.077418 -120.126157 286 6526ft 122kts
20-May-17 14:23 35.082197 -120.141170 286 6539ft 128kts
20-May-17 14:24 35.087038 -120.156619 286 6547ft 131kts
20-May-17 14:25 35.091958 -120.172402 286 6552ft 132kts
20-May-17 14:26 35.098239 -120.192600 286 6557ft 132kts
20-May-17 14:27 35.103885 -120.210786 286 6556ft 132kts
20-May-17 14:28 35.110121 -120.230895 286 6553ft 132kts
20-May-17 14:29 35.115560 -120.248448 286 6534ft 133kts
20-May-17 14:30 35.121300 -120.266974 286 6531ft 133kts
20-May-17 14:31 35.127578 -120.287260 286 6527ft 133kts
20-May-17 14:32 35.133913 -120.307747 286 6524ft 133kts
20-May-17 14:33 35.140243 -120.328235 286 6520ft 133kts
20-May-17 14:34 35.146549 -120.348655 286 6517ft 133kts
20-May-17 14:35 35.152875 -120.369148 286 6514ft 133kts
20-May-17 14:36 35.159262 -120.389858 286 6511ft 133kts
20-May-17 14:37 35.164895 -120.408132 286 6508ft 133kts
20-May-17 14:38 35.170297 -120.425667 286 6506ft 133kts
20-May-17 14:39 35.176610 -120.446175 286 6503ft 133kts
20-May-17 14:40 35.182304 -120.464601 286 6322ft 127kts
20-May-17 14:41 35.187234 -120.481686 279 5701ft 119kts
20-May-17 14:42 35.189756 -120.499163 269 5025ft 117kts
20-May-17 14:43 35.189482 -120.516724 260 4155ft 128kts
20-May-17 14:44 35.187619 -120.537304 265 2993ft 135kts
20-May-17 14:45 35.189487 -120.555235 283 2492ft 115kts
20-May-17 14:46 35.195631 -120.569488 301 2004ft 108kts
20-May-17 14:47 35.202165 -120.580754 306 1776ft 85kts
20-May-17 14:48 35.208412 -120.590631 304 1403ft 86kts
20-May-17 14:49 35.214149 -120.600621 301 1170ft 78kts
20-May-17 14:50 35.219320 -120.609587 300 965ft 76kts
20-May-17 14:51 35.223755 -120.617490 300 754ft 73kts
20-May-17 14:52 35.228305 -120.625263 300 477ft 74kts
20-May-17 14:53 35.232851 -120.633168 300 237ft 65kts
20-May-17 14:54 35.236116 -120.638860 306 215ft 32kts
20-May-17 14:55 35.237365 -120.639926 5 215ft 0kts
20-May-17 14:56 35.237365 -120.639926 5 215ft 0kts
20-May-17 14:57 35.237720 -120.638279 42 215ft 17kts
20-May-17 14:58 35.237916 -120.638561 264 215ft 0kts

Navigation Log

Ident Type
1. L88 Airport
2. KSBP Airport